Buckhurst Hill, United Kingdom
Current Conditions -  °F | °C
As of 2:20 AM on Friday 21 Nov 2014 (Local Time) from EGLC Reporting Station
Haze Haze  
Wind Chill: 45°   Ceiling: 1800
Heat Index: 45°   Visibility: 2mi
Dew Point: 43°   Wind: 0mph
Humidity: 93%   Direction: NA
Pressure: 30.18"   Gusts: NA
Location:  51.62°N, 0.05°E
Report Text: EGLC 210220Z AUTO 00000KT 3200 BR BKN018/// 07/06 Q1022
Loading
Personal Weather Stations






























Interactive Weather Map New forecast layout! Learn more

10-Day Weather Forecast

Advertisements
Track Severe Weather on mobile